Time;durP1;ratioP1;P1;durP2;ratioP2;P2;SDS_P1;SDS_P2;PMS_P1;PMS_P2;Temp;Humidity;BMP_temperature;BMP_pressure;BME280_temperature;BME280_humidity;BME280_pressure;Samples;Min_cycle;Max_cycle;Signal;HPM_P1;HPM_P2
2021/03/19 00:01:07;;;;;;;13.18;8.75;;;;;;;-2.00;100.00;92762.06;4970887;28;20046;-79
2021/03/19 00:03:33;;;;;;;21.15;8.40;;;;;;;-1.97;100.00;92765.06;4981739;28;20046;-78
2021/03/19 00:05:59;;;;;;;12.80;6.63;;;;;;;-2.00;100.00;92749.47;4973175;28;20112;-80
2021/03/19 00:08:26;;;;;;;14.23;8.80;;;;;;;-1.92;100.00;92762.91;4970132;28;20078;-79
2021/03/19 00:10:52;;;;;;;23.27;10.07;;;;;;;-1.93;100.00;92750.47;4970700;28;20051;-79
2021/03/19 00:13:19;;;;;;;17.30;9.80;;;;;;;-1.85;100.00;92762.34;4978919;28;20050;-78
2021/03/19 00:15:46;;;;;;;21.10;9.68;;;;;;;-1.82;100.00;92762.03;4989888;28;20116;-78
2021/03/19 00:18:12;;;;;;;23.85;7.65;;;;;;;-2.01;100.00;92736.09;4990343;28;20053;-78
2021/03/19 00:20:39;;;;;;;;;;;;;;;-1.80;100.00;92757.66;4990735;28;20181;-78
2021/03/19 00:23:06;;;;;;;8.48;5.22;;;;;;;-1.93;100.00;92748.75;4988460;28;19929;-78
2021/03/19 00:25:32;;;;;;;12.55;5.93;;;;;;;-1.85;100.00;92759.81;4971087;28;20046;-77
2021/03/19 00:27:59;;;;;;;12.23;6.63;;;;;;;-1.84;100.00;92758.88;4970556;28;20480;-78
2021/03/19 00:30:26;;;;;;;26.55;6.38;;;;;;;-1.88;100.00;92756.66;4970537;28;20385;-77
2021/03/19 00:32:53;;;;;;;10.95;6.93;;;;;;;-1.87;100.00;92757.44;4969936;28;20054;-78
2021/03/19 00:35:19;;;;;;;12.23;5.60;;;;;;;-1.89;100.00;92764.34;4970339;28;20051;-78
2021/03/19 00:37:45;;;;;;;7.20;5.75;;;;;;;-1.99;100.00;92748.53;4970548;28;20050;-78
2021/03/19 00:40:13;;;;;;;;;;;;;;;-1.90;100.00;92757.75;4970926;28;20049;-77
2021/03/19 00:42:40;;;;;;;8.18;4.15;;;;;;;-1.95;100.00;92754.88;4970440;28;19945;-77
2021/03/19 00:45:09;;;;;;;7.97;4.93;;;;;;;-1.93;100.00;92761.34;4974812;28;20050;-77
2021/03/19 00:47:36;;;;;;;7.68;4.38;;;;;;;-1.92;100.00;92762.13;4988794;28;20038;-77
2021/03/19 00:50:08;;;;;;;10.55;5.75;;;;;;;-1.93;100.00;92760.53;4988560;28;20105;-77
2021/03/19 00:52:34;;;;;;;7.43;4.10;;;;;;;-1.91;100.00;92758.66;4988320;28;20050;-77
2021/03/19 00:55:01;;;;;;;6.38;4.25;;;;;;;-1.88;100.00;92751.63;4988718;28;20042;-78
2021/03/19 00:57:27;;;;;;;;;;;;;;;-1.92;100.00;92752.84;4988972;28;20050;-77
2021/03/19 00:59:53;;;;;;;9.18;4.15;;;;;;;-2.02;100.00;92739.53;4988506;28;20291;-77
2021/03/19 01:02:20;;;;;;;9.40;4.93;;;;;;;-1.97;100.00;92746.66;4988702;28;20073;-77
2021/03/19 01:04:47;;;;;;;5.47;4.25;;;;;;;-1.95;100.00;92744.81;4988711;28;20046;-77
2021/03/19 01:07:13;;;;;;;9.57;4.13;;;;;;;-1.96;100.00;92745.72;4988828;28;20116;-77
2021/03/19 01:09:39;;;;;;;;;;;;;;;-1.94;100.00;92738.81;4989158;28;20053;-77
2021/03/19 01:12:06;;;;;;;7.72;3.60;;;;;;;-1.97;100.00;92739.09;4988413;28;19921;-77
2021/03/19 01:14:32;;;;;;;8.38;5.70;;;;;;;-1.88;100.00;92744.06;4988568;28;20046;-77
2021/03/19 01:16:59;;;;;;;7.03;3.65;;;;;;;-1.92;100.00;92735.22;4988553;28;20050;-77
2021/03/19 01:19:25;;;;;;;;;;;;;;;-1.91;100.00;92741.03;4989102;28;20046;-77
2021/03/19 01:21:52;;;;;;;5.50;3.78;;;;;;;-1.99;100.00;92733.44;4988422;28;20402;-77
2021/03/19 01:24:18;;;;;;;6.15;3.70;;;;;;;-2.03;100.00;92736.22;4988835;28;20047;-77
2021/03/19 01:26:44;;;;;;;;;;;;;;;-2.02;100.00;92744.59;4989476;28;20104;-77
2021/03/19 01:29:10;;;;;;;4.55;2.75;;;;;;;-2.11;100.00;92732.84;4988901;28;19932;-79
2021/03/19 01:31:37;;;;;;;7.10;3.85;;;;;;;-2.17;100.00;92729.97;4989269;28;20518;-80
2021/03/19 01:34:03;;;;;;;6.85;3.40;;;;;;;-2.12;100.00;92726.25;4989005;28;20054;-79
2021/03/19 01:36:29;;;;;;;;;;;;;;;-2.10;100.00;92726.88;4989077;28;20058;-79
2021/03/19 01:38:56;;;;;;;10.07;4.70;;;;;;;-2.18;100.00;92728.41;4988721;28;19922;-78
2021/03/19 01:41:23;;;;;;;9.05;3.55;;;;;;;-2.20;100.00;92734.50;4989182;28;20428;-78
2021/03/19 01:43:50;;;;;;;5.85;3.85;;;;;;;-2.29;100.00;92714.31;4989972;28;20484;-80
2021/03/19 01:46:53;;;;;;;4.35;3.13;;;;;;;-2.16;100.00;92728.25;4992992;28;20047;-80
2021/03/19 01:49:58;;;;;;;4.65;2.90;;;;;;;-2.13;100.00;92722.94;4992814;28;20447;-81
2021/03/19 01:53:03;;;;;;;5.53;3.63;;;;;;;-2.09;100.00;92724.22;4992211;28;20459;-80
2021/03/19 01:56:06;;;;;;;6.70;3.15;;;;;;;-2.09;100.00;92728.47;4992322;28;20046;-79
2021/03/19 01:59:10;;;;;;;4.80;4.00;;;;;;;-2.06;100.00;92725.66;4992891;28;20080;-79
2021/03/19 02:02:13;;;;;;;5.47;3.42;;;;;;;-1.93;100.00;92731.13;4992520;28;20130;-79
2021/03/19 02:05:17;;;;;;;7.07;5.15;;;;;;;-1.89;100.00;92719.81;4992665;28;20057;-79
2021/03/19 02:08:20;;;;;;;7.90;4.72;;;;;;;-1.99;100.00;92724.13;4992641;28;20061;-79
2021/03/19 02:11:24;;;;;;;11.20;5.53;;;;;;;-2.32;100.00;92722.16;4992503;28;20054;-80
2021/03/19 02:14:27;;;;;;;12.57;6.57;;;;;;;-2.22;100.00;92724.59;4992224;28;20096;-79
2021/03/19 02:17:31;;;;;;;9.43;6.78;;;;;;;-2.21;100.00;92726.19;4992673;28;20077;-79
2021/03/19 02:20:35;;;;;;;13.70;7.32;;;;;;;-2.17;100.00;92722.44;4992010;28;20056;-79
2021/03/19 02:23:38;;;;;;;14.35;9.25;;;;;;;-2.16;100.00;92723.22;4992479;28;20085;-78
2021/03/19 02:26:42;;;;;;;18.33;7.53;;;;;;;-2.15;100.00;92728.13;4992400;28;20057;-79
2021/03/19 02:29:45;;;;;;;11.13;5.28;;;;;;;-2.15;100.00;92727.31;4992064;28;20492;-79
2021/03/19 02:32:14;;;;;;;14.80;6.70;;;;;;;-2.12;100.00;92723.72;4991794;28;20462;-78
2021/03/19 02:34:44;;;;;;;7.38;4.20;;;;;;;-2.15;100.00;92724.81;4992271;28;20050;-80
2021/03/19 02:37:14;;;;;;;8.45;4.70;;;;;;;-2.15;100.00;92714.75;4992044;28;20046;-79
2021/03/19 02:39:40;;;;;;;9.60;5.22;;;;;;;-2.17;100.00;92712.38;4991699;28;20050;-79
2021/03/19 02:42:07;;;;;;;11.98;5.88;;;;;;;-2.12;100.00;92718.69;4991959;28;20393;-79
2021/03/19 02:44:34;;;;;;;5.63;3.72;;;;;;;-2.15;100.00;92709.72;4991856;28;20479;-78
2021/03/19 02:47:01;;;;;;;7.15;5.30;;;;;;;-2.10;100.00;92715.09;4991959;28;20042;-79
2021/03/19 02:49:28;;;;;;;4.88;3.58;;;;;;;-2.08;100.00;92712.44;4991677;28;20046;-79
2021/03/19 02:51:55;;;;;;;5.68;2.92;;;;;;;-2.08;100.00;92709.94;4991556;28;20423;-80
2021/03/19 02:54:21;;;;;;;6.90;3.97;;;;;;;-2.00;100.00;92706.69;4991911;28;20069;-80
2021/03/19 02:56:48;;;;;;;9.70;4.20;;;;;;;-2.05;100.00;92697.03;4990803;28;20404;-80
2021/03/19 02:59:14;;;;;;;4.90;3.22;;;;;;;-2.05;100.00;92697.84;4992002;28;20058;-79
2021/03/19 03:01:40;;;;;;;9.32;4.10;;;;;;;-1.99;100.00;92700.72;4991752;28;20447;-81
2021/03/19 03:04:07;;;;;;;7.63;2.95;;;;;;;-1.88;100.00;92713.06;4992532;28;20486;-81
2021/03/19 03:06:43;;;;;;;7.18;3.65;;;;;;;-1.93;100.00;92708.47;5014338;28;20034;-79
2021/03/19 03:09:12;;;;;;;5.10;3.33;;;;;;;-1.93;100.00;92702.66;5015762;28;20089;-79
2021/03/19 03:11:38;;;;;;;5.93;4.18;;;;;;;-1.89;100.00;92708.97;5015464;28;20064;-78
2021/03/19 03:14:11;;;;;;;5.53;4.10;;;;;;;-1.87;100.00;92702.06;5015204;28;20053;-80
2021/03/19 03:16:38;;;;;;;7.60;4.43;;;;;;;-1.88;100.00;92715.59;4998400;28;20054;-79
2021/03/19 03:19:06;;;;;;;4.57;2.60;;;;;;;-1.88;100.00;92716.38;4991633;28;20154;-78
2021/03/19 03:21:32;;;;;;;5.93;3.10;;;;;;;-1.88;100.00;92711.34;4991330;28;20420;-80
2021/03/19 03:24:00;;;;;;;7.50;3.88;;;;;;;-1.90;100.00;92712.44;4991298;28;20540;-81
2021/03/19 03:26:27;;;;;;;6.72;4.72;;;;;;;-1.99;100.00;92701.50;4990983;28;20038;-81
2021/03/19 03:28:53;;;;;;;9.60;4.18;;;;;;;-2.05;100.00;92684.44;4990956;28;20054;-78
2021/03/19 03:31:20;;;;;;;6.47;3.78;;;;;;;-1.96;100.00;92706.25;4991079;28;20055;-79
2021/03/19 03:33:46;;;;;;;9.13;3.83;;;;;;;-1.99;100.00;92698.19;4991097;28;20050;-79
2021/03/19 03:36:13;;;;;;;13.63;6.10;;;;;;;-1.87;100.00;92709.59;4990805;28;20050;-78
2021/03/19 03:38:40;;;;;;;8.93;5.00;;;;;;;-1.96;100.00;92697.88;4990743;28;20046;-83
2021/03/19 03:41:10;;;;;;;10.10;4.40;;;;;;;-1.88;100.00;92708.84;4990686;28;20496;-82
2021/03/19 03:43:36;;;;;;;8.77;4.43;;;;;;;-1.81;100.00;92710.75;4990626;28;20047;-82
2021/03/19 03:46:04;;;;;;;6.65;5.07;;;;;;;-1.83;100.00;92707.59;4990319;28;20060;-82
2021/03/19 03:48:33;;;;;;;13.07;5.35;;;;;;;-1.91;100.00;92703.28;4990370;28;20057;-82
2021/03/19 03:51:01;;;;;;;8.18;3.83;;;;;;;-1.93;100.00;92713.50;4990453;28;20054;-82
2021/03/19 03:53:28;;;;;;;9.98;5.10;;;;;;;-1.88;100.00;92713.06;4990464;28;20504;-82
2021/03/19 03:55:55;;;;;;;9.07;4.47;;;;;;;-1.85;100.00;92714.50;4990832;28;20050;-81
2021/03/19 03:58:22;;;;;;;10.45;3.97;;;;;;;-1.89;100.00;92709.75;4990757;28;20054;-81
2021/03/19 04:00:49;;;;;;;6.65;4.55;;;;;;;-1.86;100.00;92711.19;4990643;28;20054;-81
2021/03/19 04:03:15;;;;;;;10.40;6.43;;;;;;;-1.92;100.00;92691.63;4990264;28;20054;-81
2021/03/19 04:05:43;;;;;;;10.70;6.65;;;;;;;-1.98;100.00;92694.75;4990594;28;20057;-80
2021/03/19 04:08:12;;;;;;;13.07;6.60;;;;;;;-1.89;100.00;92714.00;4990511;28;20104;-80
2021/03/19 04:10:39;;;;;;;12.52;6.53;;;;;;;-1.95;100.00;92697.75;4990538;28;20057;-80
2021/03/19 04:13:07;;;;;;;10.75;6.13;;;;;;;-1.85;100.00;92717.03;4990436;28;20056;-82
2021/03/19 04:15:34;;;;;;;12.15;7.95;;;;;;;-1.89;100.00;92721.56;4990463;28;20115;-81
2021/03/19 04:18:04;;;;;;;30.95;10.57;;;;;;;-1.89;100.00;92724.09;4990065;28;20565;-81
2021/03/19 04:21:07;;;;;;;19.83;10.65;;;;;;;-2.23;100.00;92681.97;4990021;28;20057;-83
2021/03/19 04:23:49;;;;;;;16.02;9.68;;;;;;;-2.70;100.00;92614.16;4991317;28;20412;-81
2021/03/19 04:26:25;;;;;;;20.80;10.02;;;;;;;-1.95;100.00;92717.88;4989606;28;20789;-82
2021/03/19 04:28:52;;;;;;;11.35;5.95;;;;;;;-1.92;100.00;92734.44;4989857;28;20069;-81
2021/03/19 04:31:19;;;;;;;8.35;5.15;;;;;;;-1.84;100.00;92728.66;4990102;28;20165;-80
2021/03/19 04:33:46;;;;;;;6.38;5.68;;;;;;;-1.80;100.00;92729.97;4989843;28;20042;-80
2021/03/19 04:36:26;;;;;;;14.57;6.00;;;;;;;-1.80;100.00;92740.03;4989977;28;20435;-80
2021/03/19 04:38:55;;;;;;;10.27;4.72;;;;;;;-1.86;100.00;92733.84;4990084;28;20145;-80
2021/03/19 04:41:22;;;;;;;8.73;4.15;;;;;;;-1.82;100.00;92732.63;4990108;28;20141;-79
2021/03/19 04:43:49;;;;;;;5.47;4.05;;;;;;;-1.91;100.00;92723.41;4989359;28;20050;-79
2021/03/19 04:46:15;;;;;;;10.05;4.22;;;;;;;-1.77;100.00;92742.25;4989886;28;20377;-79
2021/03/19 04:48:42;;;;;;;8.38;3.50;;;;;;;-1.93;100.00;92712.72;4989579;28;20077;-79
2021/03/19 04:51:08;;;;;;;11.15;5.28;;;;;;;-1.95;100.00;92722.91;4989707;28;20392;-79
2021/03/19 04:53:34;;;;;;;;;;;;;;;-1.77;100.00;92740.53;4990347;28;20109;-79
2021/03/19 04:56:01;;;;;;;9.85;5.72;;;;;;;-1.79;100.00;92739.91;4990001;28;19925;-79
2021/03/19 04:58:27;;;;;;;7.40;4.43;;;;;;;-1.77;100.00;92737.22;4989571;28;20085;-79
2021/03/19 05:00:53;;;;;;;10.30;5.82;;;;;;;-1.72;100.00;92736.78;4989656;28;20050;-82
2021/03/19 05:03:20;;;;;;;8.02;6.68;;;;;;;-1.65;100.00;92741.09;4990010;28;20054;-80
2021/03/19 05:05:47;;;;;;;11.45;5.57;;;;;;;-1.61;100.00;92741.59;4989478;28;20046;-80
2021/03/19 05:08:13;;;;;;;17.50;9.38;;;;;;;-1.61;100.00;92742.38;4989693;28;20061;-80
2021/03/19 05:10:40;;;;;;;;;;;;;;;-1.51;100.00;92747.34;4990078;28;20054;-80
2021/03/19 05:13:09;;;;;;;9.48;5.00;;;;;;;-1.55;100.00;92741.00;4989576;28;19948;-81
2021/03/19 05:15:37;;;;;;;14.70;7.57;;;;;;;-1.48;100.00;92743.72;4989326;28;20096;-80
2021/03/19 05:18:05;;;;;;;14.82;8.23;;;;;;;-1.42;100.00;92747.38;4989917;28;20047;-81
2021/03/19 05:20:31;;;;;;;18.27;11.48;;;;;;;-1.35;100.00;92750.88;4993520;28;20419;-80
2021/03/19 05:22:59;;;;;;;23.70;12.70;;;;;;;-1.48;100.00;92729.38;4993214;28;20046;-79
2021/03/19 05:25:29;;;;;;;22.40;12.05;;;;;;;-1.40;100.00;92733.69;4993200;28;20496;-81
2021/03/19 05:27:56;;;;;;;20.05;11.10;;;;;;;-1.26;100.00;92754.22;4993447;28;20060;-82
2021/03/19 05:30:24;;;;;;;27.75;12.35;;;;;;;-1.35;100.00;92746.63;4993300;28;20105;-80
2021/03/19 05:32:51;;;;;;;19.23;10.95;;;;;;;-1.31;100.00;92752.16;4992918;28;20085;-80
2021/03/19 05:35:20;;;;;;;19.92;11.10;;;;;;;-1.43;100.00;92728.94;4993119;28;20047;-82
2021/03/19 05:37:48;;;;;;;29.02;13.25;;;;;;;-1.12;100.00;92765.50;4993276;28;20475;-81
2021/03/19 05:40:24;;;;;;;19.30;12.48;;;;;;;-1.22;100.00;92753.81;4993134;28;20046;-81
2021/03/19 05:42:51;;;;;;;;;;;;;;;-1.06;100.00;92776.72;4993667;28;20051;-82
2021/03/19 05:45:24;;;;;;;23.67;11.32;;;;;;;-1.03;100.00;92771.38;4993082;28;19928;-81
2021/03/19 05:47:52;;;;;;;29.55;15.90;;;;;;;-0.99;100.00;92773.44;4992794;28;20097;-82
2021/03/19 05:50:30;;;;;;;26.92;14.63;;;;;;;-0.90;100.00;92779.31;4992784;28;20046;-80
2021/03/19 05:53:04;;;;;;;32.08;15.55;;;;;;;-0.96;100.00;92760.53;4992582;28;20108;-81
2021/03/19 05:55:37;;;;;;;27.98;15.20;;;;;;;-0.81;100.00;92775.09;4992684;28;20050;-80
2021/03/19 05:58:05;;;;;;;30.25;17.27;;;;;;;-0.75;100.00;92776.25;4993046;28;20051;-80
2021/03/19 06:00:32;;;;;;;37.70;15.02;;;;;;;-0.72;100.00;92771.69;4992599;28;20053;-81
2021/03/19 06:02:58;;;;;;;32.95;16.92;;;;;;;-0.66;100.00;92777.06;4992948;28;20570;-81
2021/03/19 06:05:27;;;;;;;29.65;12.57;;;;;;;-0.65;100.00;92773.59;4990778;28;20054;-81
2021/03/19 06:07:55;;;;;;;23.65;13.30;;;;;;;-0.58;100.00;92777.09;4990781;28;20086;-81
2021/03/19 06:10:27;;;;;;;26.77;14.82;;;;;;;-0.45;100.00;92774.94;4992356;28;20052;-81
2021/03/19 06:13:07;;;;;;;28.48;15.02;;;;;;;-0.25;100.00;92777.19;4992567;28;20058;-79
2021/03/19 06:15:36;;;;;;;25.58;12.57;;;;;;;-0.05;100.00;92779.44;4992775;28;20136;-81
2021/03/19 06:18:06;;;;;;;33.38;12.82;;;;;;;0.25;99.81;92782.31;4992850;28;20050;-81
2021/03/19 06:20:34;;;;;;;27.42;11.70;;;;;;;0.09;97.57;92730.84;4992824;28;20046;-83
2021/03/19 06:23:04;;;;;;;22.25;10.63;;;;;;;0.59;93.73;92772.97;4992763;28;20431;-81
2021/03/19 06:25:38;;;;;;;23.38;13.15;;;;;;;0.79;92.97;92791.94;4992176;28;20046;-82
2021/03/19 06:28:22;;;;;;;18.73;12.35;;;;;;;0.90;94.07;92795.88;4992569;28;20125;-82
2021/03/19 06:30:49;;;;;;;28.13;12.07;;;;;;;0.92;93.49;92795.69;4990858;28;20487;-82
2021/03/19 06:33:27;;;;;;;24.80;11.02;;;;;;;1.03;90.29;92795.34;4991922;28;20054;-82
2021/03/19 06:36:15;;;;;;;29.65;13.80;;;;;;;1.12;89.12;92792.81;4992338;28;20042;-81
2021/03/19 06:38:44;;;;;;;23.15;12.20;;;;;;;0.87;87.05;92782.75;4984647;28;20070;-82
2021/03/19 06:41:29;;;;;;;25.83;10.52;;;;;;;1.22;89.34;92806.09;4991393;28;20056;-82
2021/03/19 06:44:13;;;;;;;18.23;10.23;;;;;;;1.58;85.60;92807.41;4992025;28;20058;-82
2021/03/19 06:46:44;;;;;;;13.20;6.85;;;;;;;1.85;85.16;92808.69;4991799;28;20492;-83
2021/03/19 06:49:10;;;;;;;12.43;6.18;;;;;;;2.12;85.49;92805.84;4991815;28;20137;-82
2021/03/19 06:51:39;;;;;;;12.75;5.78;;;;;;;2.12;84.13;92793.19;4991515;28;20046;-83
2021/03/19 06:54:09;;;;;;;9.18;5.18;;;;;;;1.87;82.28;92730.00;4991973;28;20046;-83
2021/03/19 06:56:36;;;;;;;11.00;5.95;;;;;;;2.50;83.91;92788.16;4991619;28;20494;-83
2021/03/19 06:59:19;;;;;;;19.75;8.50;;;;;;;2.81;84.42;92799.16;4991404;28;20522;-83
2021/03/19 07:01:46;;;;;;;12.93;5.97;;;;;;;3.01;82.87;92788.53;4991480;28;20410;-84
2021/03/19 07:04:41;;;;;;;13.38;6.82;;;;;;;3.38;83.14;92806.41;4991305;28;20104;-84
2021/03/19 07:07:30;;;;;;;17.77;7.05;;;;;;;3.40;77.30;92787.50;4991155;28;20058;-83
2021/03/19 07:10:15;;;;;;;23.65;9.13;;;;;;;3.16;75.49;92758.09;4991282;28;20050;-83
2021/03/19 07:12:49;;;;;;;15.73;6.60;;;;;;;3.41;79.28;92747.66;4991156;28;20405;-84
2021/03/19 07:15:36;;;;;;;10.73;5.30;;;;;;;3.72;77.76;92762.69;4991508;28;20050;-83
2021/03/19 07:18:08;;;;;;;11.68;4.70;;;;;;;3.84;78.19;92783.31;4991914;28;20051;-84
2021/03/19 07:20:58;;;;;;;8.73;4.63;;;;;;;4.01;78.00;92780.56;4991161;28;20058;-84
2021/03/19 07:23:26;;;;;;;10.75;4.45;;;;;;;4.15;76.55;92799.28;4990966;28;20057;-85
2021/03/19 07:26:07;;;;;;;9.13;4.50;;;;;;;4.27;77.27;92782.56;4991414;28;20050;-84
2021/03/19 07:29:24;;;;;;;6.28;3.10;;;;;;;4.37;69.29;92799.28;4991082;28;20050;-85
2021/03/19 07:32:15;;;;;;;5.03;3.03;;;;;;;4.05;69.94;92802.13;4990880;28;20407;-86
2021/03/19 07:34:55;;;;;;;8.50;3.17;;;;;;;3.98;74.04;92773.31;4991017;28;20057;-86
2021/03/19 07:37:46;;;;;;;4.80;3.65;;;;;;;4.46;74.01;92800.75;4990670;28;20140;-84
2021/03/19 07:40:28;;;;;;;6.63;4.43;;;;;;;4.83;73.17;92787.94;4990579;28;20504;-85
2021/03/19 07:43:20;;;;;;;6.82;2.42;;;;;;;4.51;68.27;92785.75;4990419;28;20050;-84
2021/03/19 07:46:03;;;;;;;4.65;2.45;;;;;;;4.06;70.31;92790.97;4990367;28;20519;-85
2021/03/19 07:48:43;;;;;;;3.53;2.55;;;;;;;4.39;73.37;92782.88;4990647;28;20046;-84
2021/03/19 07:51:23;;;;;;;6.95;3.53;;;;;;;3.32;71.25;92780.75;4990195;28;20050;-84
2021/03/19 07:54:12;;;;;;;7.50;2.55;;;;;;;3.14;74.14;92793.03;4990345;28;20089;-84
2021/03/19 07:56:49;;;;;;;7.72;3.65;;;;;;;2.61;73.83;92793.78;4990664;28;20047;-84
2021/03/19 07:59:23;;;;;;;5.22;4.53;;;;;;;3.01;78.00;92794.38;4990582;28;20052;-85
2021/03/19 08:01:58;;;;;;;6.80;3.35;;;;;;;3.53;78.33;92798.78;4990297;28;20085;-87
2021/03/19 08:04:34;;;;;;;4.53;2.55;;;;;;;3.95;72.50;92802.41;4990645;28;20475;-85
2021/03/19 08:07:16;;;;;;;4.10;2.60;;;;;;;4.00;71.77;92804.41;4990943;28;20077;-84
2021/03/19 08:09:48;;;;;;;6.90;3.72;;;;;;;3.97;72.30;92792.03;4990985;28;20050;-84
2021/03/19 08:12:22;;;;;;;6.25;3.75;;;;;;;4.09;74.31;92787.28;4990621;28;20054;-83
2021/03/19 08:15:02;;;;;;;4.10;2.15;;;;;;;4.45;75.84;92791.56;4990028;28;20554;-82
2021/03/19 08:17:52;;;;;;;9.23;3.55;;;;;;;4.59;73.50;92756.84;4990021;28;20092;-82
2021/03/19 08:20:32;;;;;;;4.05;2.35;;;;;;;4.97;70.12;92800.75;4990255;28;20057;-82
2021/03/19 08:23:04;;;;;;;6.35;2.10;;;;;;;5.01;69.63;92781.59;4989801;28;20050;-82
2021/03/19 08:25:35;;;;;;;5.38;3.40;;;;;;;4.93;66.39;92801.13;4990047;28;20050;-81
2021/03/19 08:28:09;;;;;;;7.18;3.40;;;;;;;4.18;68.50;92776.06;4990007;28;20109;-81
2021/03/19 08:30:45;;;;;;;10.15;4.40;;;;;;;3.90;68.66;92768.31;4989874;28;20061;-81
2021/03/19 08:33:16;;;;;;;;;;;;;;;4.45;69.21;92785.69;4990036;28;20058;-81
2021/03/19 08:35:52;;;;;;;5.72;3.03;;;;;;;4.42;69.83;92776.66;4990063;28;19921;-82
2021/03/19 08:38:21;;;;;;;;;;;;;;;4.60;72.53;92778.78;4990662;28;20097;-83
2021/03/19 08:40:53;;;;;;;7.90;3.78;;;;;;;4.60;69.33;92785.59;4989660;28;19932;-83
2021/03/19 08:43:24;;;;;;;8.50;3.75;;;;;;;5.02;72.88;92776.34;4989896;28;20042;-83
2021/03/19 08:46:09;;;;;;;4.32;2.10;;;;;;;5.14;68.04;92768.16;4989630;28;20050;-83
2021/03/19 08:48:47;;;;;;;4.82;2.55;;;;;;;5.18;65.67;92784.63;4989121;28;20519;-82
2021/03/19 08:51:21;;;;;;;11.60;4.18;;;;;;;5.05;66.64;92775.16;4989886;28;20105;-82
2021/03/19 08:54:24;;;;;;;6.00;3.53;;;;;;;4.12;68.01;92787.72;4989323;28;20042;-81
2021/03/19 08:56:52;;;;;;;6.93;2.95;;;;;;;4.68;71.57;92771.00;4989746;28;20415;-81
2021/03/19 08:59:47;;;;;;;6.53;3.60;;;;;;;5.32;71.19;92777.88;4989751;28;20050;-81
2021/03/19 09:02:49;;;;;;;5.50;2.58;;;;;;;5.07;65.02;92781.66;4989537;28;20459;-82
2021/03/19 09:05:21;;;;;;;6.75;2.75;;;;;;;4.82;67.85;92773.66;4983310;28;20543;-82
2021/03/19 09:08:18;;;;;;;4.72;2.92;;;;;;;5.07;68.82;92757.94;4989645;28;20050;-82
2021/03/19 09:11:07;;;;;;;6.57;2.83;;;;;;;5.53;65.90;92768.56;4989301;28;20057;-82
2021/03/19 09:13:34;;;;;;;3.92;2.67;;;;;;;5.20;63.99;92775.06;4981466;28;20423;-83
2021/03/19 09:16:35;;;;;;;;;;;;;;;4.73;67.01;92774.75;4990270;28;20057;-83
2021/03/19 09:19:01;;;;;;;9.90;2.90;;;;;;;4.93;68.57;92759.63;4984183;28;19922;-82
2021/03/19 09:21:29;;;;;;;;;;;;;;;5.14;69.21;92773.25;4975615;28;20054;-82
2021/03/19 09:24:06;;;;;;;9.63;3.38;;;;;;;5.38;69.98;92763.59;4979906;28;20290;-83
2021/03/19 09:26:50;;;;;;;9.13;3.33;;;;;;;5.46;68.38;92736.19;4978776;28;20069;-83
2021/03/19 09:29:26;;;;;;;7.10;3.33;;;;;;;5.69;63.15;92765.69;4978884;28;20050;-83
2021/03/19 09:31:55;;;;;;;7.38;4.43;;;;;;;5.03;63.84;92760.06;4978145;28;20059;-83
2021/03/19 09:34:44;;;;;;;5.20;3.30;;;;;;;5.26;62.34;92760.78;4979306;28;20058;-83
2021/03/19 09:37:58;;;;;;;5.97;2.55;;;;;;;4.44;64.43;92756.91;4979679;28;20046;-84
2021/03/19 09:40:48;;;;;;;5.90;3.28;;;;;;;4.01;66.43;92755.94;4925768;29;20440;-83
2021/03/19 09:43:38;;;;;;;15.85;7.90;;;;;;;4.53;67.61;92767.72;4984894;28;20061;-84
2021/03/19 09:46:12;;;;;;;5.45;2.78;;;;;;;4.29;67.72;92772.22;4984114;28;20055;-84
2021/03/19 09:48:38;;;;;;;7.28;2.67;;;;;;;4.71;67.48;92758.88;4985672;28;20525;-83
2021/03/19 09:51:07;;;;;;;;;;;;;;;4.72;67.22;92765.53;4970055;28;20058;-83
2021/03/19 09:53:38;;;;;;;4.45;2.25;;;;;;;4.61;68.14;92759.97;4969631;28;19926;-84
2021/03/19 09:56:18;;;;;;;5.22;2.95;;;;;;;4.58;68.13;92767.19;4969729;28;20054;-83
2021/03/19 09:58:46;;;;;;;5.10;2.67;;;;;;;4.49;69.95;92744.44;4969864;28;20101;-83
2021/03/19 10:01:21;;;;;;;5.43;2.70;;;;;;;4.51;67.18;92767.94;4975436;28;20065;-83
2021/03/19 10:03:50;;;;;;;4.25;2.78;;;;;;;4.86;68.14;92769.75;4989269;28;20483;-84
2021/03/19 10:06:25;;;;;;;3.75;1.88;;;;;;;5.11;67.76;92753.25;4992585;28;20043;-84
2021/03/19 10:08:51;;;;;;;5.07;2.58;;;;;;;5.40;66.22;92748.91;4972958;28;20508;-84
2021/03/19 10:11:18;;;;;;;5.75;3.50;;;;;;;5.53;66.11;92756.63;4973231;28;20062;-84
2021/03/19 10:13:45;;;;;;;8.43;2.55;;;;;;;5.45;62.75;92749.91;4972943;28;20043;-84
2021/03/19 10:16:21;;;;;;;4.47;2.38;;;;;;;5.29;60.61;92779.03;4973136;28;20050;-84
2021/03/19 10:18:47;;;;;;;7.28;3.42;;;;;;;5.30;63.10;92788.25;4973293;28;20500;-84
2021/03/19 10:21:18;;;;;;;4.97;2.28;;;;;;;5.35;66.16;92785.94;4973029;28;20047;-85
2021/03/19 10:23:46;;;;;;;4.80;2.55;;;;;;;5.22;63.69;92779.00;4972823;28;20047;-84
2021/03/19 10:26:23;;;;;;;6.68;3.05;;;;;;;4.76;66.79;92780.25;4972519;28;20055;-85
2021/03/19 10:28:51;;;;;;;7.38;3.55;;;;;;;4.52;69.71;92745.81;4972903;28;20448;-84
2021/03/19 10:31:21;;;;;;;5.50;3.20;;;;;;;4.08;65.61;92765.38;4972512;28;20054;-84
2021/03/19 10:33:58;;;;;;;5.35;3.28;;;;;;;4.41;67.35;92760.59;4973064;28;20117;-84
2021/03/19 10:36:35;;;;;;;3.63;2.10;;;;;;;4.76;63.83;92769.28;4972665;28;20142;-84
2021/03/19 10:39:07;;;;;;;7.43;2.78;;;;;;;5.08;62.55;92751.88;4988856;28;20054;-82
2021/03/19 10:41:42;;;;;;;10.35;3.67;;;;;;;5.45;66.21;92762.66;4991868;28;20050;-82
2021/03/19 10:44:14;;;;;;;6.00;3.05;;;;;;;5.42;64.09;92711.31;4991941;28;20050;-85
2021/03/19 10:46:46;;;;;;;6.03;3.22;;;;;;;5.85;62.56;92756.94;4989046;28;20043;-85
2021/03/19 10:49:18;;;;;;;4.70;2.22;;;;;;;5.79;61.18;92759.47;4992210;28;20054;-84
2021/03/19 10:51:56;;;;;;;7.72;4.05;;;;;;;5.88;67.32;92746.34;4991929;28;20411;-85
2021/03/19 10:54:27;;;;;;;5.70;3.13;;;;;;;5.73;65.88;92738.84;4992153;28;20049;-85
2021/03/19 10:57:00;;;;;;;6.68;3.75;;;;;;;5.84;66.74;92752.78;4991330;28;20052;-85
2021/03/19 10:59:34;;;;;;;4.57;2.53;;;;;;;5.55;61.86;92754.66;4993481;28;20054;-85
2021/03/19 11:02:18;;;;;;;9.48;2.80;;;;;;;5.13;64.49;92733.50;4991626;28;20061;-84
2021/03/19 11:04:48;;;;;;;5.85;2.50;;;;;;;5.01;60.45;92740.88;4991114;28;20050;-85
2021/03/19 11:07:29;;;;;;;3.95;1.90;;;;;;;4.74;60.86;92753.41;4991193;28;20050;-84
2021/03/19 11:10:14;;;;;;;4.93;2.80;;;;;;;5.04;61.29;92732.84;4991639;28;20054;-84
2021/03/19 11:12:45;;;;;;;5.75;2.10;;;;;;;5.26;61.64;92742.94;4991545;28;20054;-83
2021/03/19 11:15:17;;;;;;;4.35;2.63;;;;;;;5.48;66.49;92738.56;4991365;28;20415;-84
2021/03/19 11:17:44;;;;;;;6.25;3.08;;;;;;;5.50;58.98;92689.97;4990696;28;20073;-84
2021/03/19 11:20:22;;;;;;;7.82;3.42;;;;;;;6.09;62.87;92748.97;4991456;28;20125;-84
2021/03/19 11:23:57;;;;;;;5.75;2.50;;;;;;;6.39;63.60;92748.63;4990844;28;20054;-86
2021/03/19 11:26:28;;;;;;;4.65;2.25;;;;;;;6.27;61.99;92700.75;4972694;28;20047;-85
2021/03/19 11:29:23;;;;;;;3.92;2.35;;;;;;;6.74;61.74;92724.66;4976004;28;20069;-85
2021/03/19 11:32:04;;;;;;;5.10;2.30;;;;;;;7.09;60.15;92737.97;4991270;28;20491;-86
2021/03/19 11:34:37;;;;;;;8.98;2.53;;;;;;;7.06;60.93;92740.16;5010129;28;20070;-85
2021/03/19 11:37:07;;;;;;;6.00;2.53;;;;;;;7.17;56.87;92736.22;5014136;28;20110;-85
2021/03/19 11:39:52;;;;;;;5.07;2.58;;;;;;;7.28;58.13;92725.38;5014170;28;20057;-86
2021/03/19 11:42:21;;;;;;;4.20;1.42;;;;;;;7.44;54.79;92728.47;5014229;28;20118;-85
2021/03/19 11:44:51;;;;;;;2.80;1.63;;;;;;;7.59;50.74;92735.91;4997321;28;20056;-85
2021/03/19 11:47:20;;;;;;;4.63;3.08;;;;;;;7.16;55.10;92689.44;4990967;28;20538;-86
2021/03/19 11:49:48;;;;;;;5.47;2.60;;;;;;;7.48;57.77;92724.53;4990935;28;20481;-85
2021/03/19 11:52:16;;;;;;;6.18;2.70;;;;;;;7.48;57.91;92725.31;4990785;28;20050;-87
2021/03/19 11:54:42;;;;;;;3.53;1.83;;;;;;;7.61;53.41;92729.59;4990394;28;20522;-86
2021/03/19 11:57:10;;;;;;;3.92;2.08;;;;;;;7.25;48.18;92714.75;4990536;28;20046;-84
2021/03/19 11:59:36;;;;;;;6.50;2.47;;;;;;;7.05;53.43;92665.28;4990379;28;20558;-87
2021/03/19 12:02:19;;;;;;;5.85;2.65;;;;;;;7.68;54.43;92716.00;4990420;28;20077;-86
2021/03/19 12:04:45;;;;;;;4.03;1.90;;;;;;;6.57;56.49;92666.38;4990580;28;20054;-87